<?xml version="1.0" encoding="UTF-8"?><gpx creator="Wikiloc - http://www.wikiloc.com" version="1.1" xmlns="http://www.topografix.com/GPX/1/1" xmlns:xsi="http://www.w3.org/2001/XMLSchema-instance" xsi:schemaLocation="http://www.topografix.com/GPX/1/1 http://www.topografix.com/GPX/1/1/gpx.xsd"><trk><name>PR-BA 125 'Los Galapagos' (Higuera de Vargas)</name><cmt></cmt><desc></desc><trkseg><trkpt lat="38.447010" lon="-6.997230"><ele>284.2</ele><time>2008-11-25T10:51:02Z</time></trkpt><trkpt lat="38.447080" lon="-6.997030"><ele>284.7</ele><time>2008-11-25T10:51:03Z</time></trkpt><trkpt lat="38.446300" lon="-6.995690"><ele>293.3</ele><time>2008-11-25T10:51:04Z</time></trkpt><trkpt lat="38.446060" lon="-6.995250"><ele>296.2</ele><time>2008-11-25T10:51:05Z</time></trkpt><trkpt lat="38.445910" lon="-6.994920"><ele>299.1</ele><time>2008-11-25T10:51:06Z</time></trkpt><trkpt lat="38.445240" lon="-6.993750"><ele>310.2</ele><time>2008-11-25T10:51:07Z</time></trkpt><trkpt lat="38.445050" lon="-6.993250"><ele>315.0</ele><time>2008-11-25T10:51:08Z</time></trkpt><trkpt lat="38.444820" lon="-6.992740"><ele>318.8</ele><time>2008-11-25T10:51:09Z</time></trkpt><trkpt lat="38.444750" lon="-6.992500"><ele>321.2</ele><time>2008-11-25T10:51:10Z</time></trkpt><trkpt lat="38.444620" lon="-6.988990"><ele>327.5</ele><time>2008-11-25T10:51:11Z</time></trkpt><trkpt lat="38.444500" lon="-6.987510"><ele>333.2</ele><time>2008-11-25T10:51:12Z</time></trkpt><trkpt lat="38.444710" lon="-6.985990"><ele>334.2</ele><time>2008-11-25T10:51:13Z</time></trkpt><trkpt lat="38.444720" lon="-6.985630"><ele>337.1</ele><time>2008-11-25T10:51:14Z</time></trkpt><trkpt lat="38.444610" lon="-6.985270"><ele>339.0</ele><time>2008-11-25T10:51:15Z</time></trkpt><trkpt lat="38.443960" lon="-6.983990"><ele>344.3</ele><time>2008-11-25T10:51:16Z</time></trkpt><trkpt lat="38.443690" lon="-6.983400"><ele>347.2</ele><time>2008-11-25T10:51:17Z</time></trkpt><trkpt lat="38.443460" lon="-6.982790"><ele>352.0</ele><time>2008-11-25T10:51:18Z</time></trkpt><trkpt lat="38.443360" lon="-6.982420"><ele>355.3</ele><time>2008-11-25T10:51:19Z</time></trkpt><trkpt lat="38.443210" lon="-6.981510"><ele>357.7</ele><time>2008-11-25T10:51:20Z</time></trkpt><trkpt lat="38.443270" lon="-6.980930"><ele>361.1</ele><time>2008-11-25T10:51:21Z</time></trkpt><trkpt lat="38.443220" lon="-6.980440"><ele>358.2</ele><time>2008-11-25T10:51:22Z</time></trkpt><trkpt lat="38.443520" lon="-6.979280"><ele>349.1</ele><time>2008-11-25T10:51:23Z</time></trkpt><trkpt lat="38.443600" lon="-6.979100"><ele>348.1</ele><time>2008-11-25T10:51:24Z</time></trkpt><trkpt lat="38.443640" lon="-6.978690"><ele>346.2</ele><time>2008-11-25T10:51:25Z</time></trkpt><trkpt lat="38.443510" lon="-6.977890"><ele>342.4</ele><time>2008-11-25T10:51:26Z</time></trkpt><trkpt lat="38.443420" lon="-6.977530"><ele>340.0</ele><time>2008-11-25T10:51:27Z</time></trkpt><trkpt lat="38.443690" lon="-6.976920"><ele>340.9</ele><time>2008-11-25T10:51:28Z</time></trkpt><trkpt lat="38.443920" lon="-6.976770"><ele>340.4</ele><time>2008-11-25T10:51:29Z</time></trkpt><trkpt lat="38.444040" lon="-6.976650"><ele>341.4</ele><time>2008-11-25T10:51:30Z</time></trkpt><trkpt lat="38.444440" lon="-6.976550"><ele>343.3</ele><time>2008-11-25T10:51:31Z</time></trkpt><trkpt lat="38.444400" lon="-6.976550"><ele>342.8</ele><time>2008-11-25T10:51:32Z</time></trkpt><trkpt lat="38.444630" lon="-6.976410"><ele>346.2</ele><time>2008-11-25T10:51:33Z</time></trkpt><trkpt lat="38.445490" lon="-6.976590"><ele>352.5</ele><time>2008-11-25T10:51:34Z</time></trkpt><trkpt lat="38.446130" lon="-6.976670"><ele>358.7</ele><time>2008-11-25T10:51:35Z</time></trkpt><trkpt lat="38.446410" lon="-6.976480"><ele>359.7</ele><time>2008-11-25T10:51:36Z</time></trkpt><trkpt lat="38.446580" lon="-6.976440"><ele>359.7</ele><time>2008-11-25T10:51:37Z</time></trkpt><trkpt lat="38.446670" lon="-6.976310"><ele>357.7</ele><time>2008-11-25T10:51:38Z</time></trkpt><trkpt lat="38.446820" lon="-6.976200"><ele>354.9</ele><time>2008-11-25T10:51:39Z</time></trkpt><trkpt lat="38.446840" lon="-6.976200"><ele>355.3</ele><time>2008-11-25T10:51:40Z</time></trkpt><trkpt lat="38.447000" lon="-6.976540"><ele>354.4</ele><time>2008-11-25T10:51:41Z</time></trkpt><trkpt lat="38.447050" lon="-6.976530"><ele>353.4</ele><time>2008-11-25T10:51:42Z</time></trkpt><trkpt lat="38.447280" lon="-6.976360"><ele>351.0</ele><time>2008-11-25T10:51:43Z</time></trkpt><trkpt lat="38.447290" lon="-6.976380"><ele>350.6</ele><time>2008-11-25T10:51:44Z</time></trkpt><trkpt lat="38.447930" lon="-6.975970"><ele>346.7</ele><time>2008-11-25T10:51:45Z</time></trkpt><trkpt lat="38.448080" lon="-6.975960"><ele>345.7</ele><time>2008-11-25T10:51:46Z</time></trkpt><trkpt lat="38.448070" lon="-6.976050"><ele>345.7</ele><time>2008-11-25T10:51:47Z</time></trkpt><trkpt lat="38.448000" lon="-6.976110"><ele>347.2</ele><time>2008-11-25T10:51:48Z</time></trkpt><trkpt lat="38.448210" lon="-6.976660"><ele>346.7</ele><time>2008-11-25T10:51:49Z</time></trkpt><trkpt lat="38.448800" lon="-6.977730"><ele>340.9</ele><time>2008-11-25T10:51:50Z</time></trkpt><trkpt lat="38.448940" lon="-6.977970"><ele>340.4</ele><time>2008-11-25T10:51:51Z</time></trkpt><trkpt lat="38.449410" lon="-6.978650"><ele>338.1</ele><time>2008-11-25T10:51:52Z</time></trkpt><trkpt lat="38.449420" lon="-6.978630"><ele>338.1</ele><time>2008-11-25T10:51:53Z</time></trkpt><trkpt lat="38.449460" lon="-6.978730"><ele>336.1</ele><time>2008-11-25T10:51:54Z</time></trkpt><trkpt lat="38.450000" lon="-6.979240"><ele>333.7</ele><time>2008-11-25T10:51:55Z</time></trkpt><trkpt lat="38.450020" lon="-6.979220"><ele>334.2</ele><time>2008-11-25T10:51:56Z</time></trkpt><trkpt lat="38.450150" lon="-6.979350"><ele>333.7</ele><time>2008-11-25T10:51:57Z</time></trkpt><trkpt lat="38.450580" lon="-6.979060"><ele>331.3</ele><time>2008-11-25T10:51:58Z</time></trkpt><trkpt lat="38.450760" lon="-6.978930"><ele>329.4</ele><time>2008-11-25T10:51:59Z</time></trkpt><trkpt lat="38.450960" lon="-6.978740"><ele>326.5</ele><time>2008-11-25T10:52:00Z</time></trkpt><trkpt lat="38.451310" lon="-6.978180"><ele>325.6</ele><time>2008-11-25T10:52:01Z</time></trkpt><trkpt lat="38.451910" lon="-6.977350"><ele>327.9</ele><time>2008-11-25T10:52:02Z</time></trkpt><trkpt lat="38.451960" lon="-6.977300"><ele>327.9</ele><time>2008-11-25T10:52:03Z</time></trkpt><trkpt lat="38.451950" lon="-6.977330"><ele>325.1</ele><time>2008-11-25T10:52:04Z</time></trkpt><trkpt lat="38.452200" lon="-6.977210"><ele>327.0</ele><time>2008-11-25T10:52:05Z</time></trkpt><trkpt lat="38.452520" lon="-6.976930"><ele>327.9</ele><time>2008-11-25T10:52:06Z</time></trkpt><trkpt lat="38.452940" lon="-6.976370"><ele>331.3</ele><time>2008-11-25T10:52:07Z</time></trkpt><trkpt lat="38.453070" lon="-6.976150"><ele>332.8</ele><time>2008-11-25T10:52:08Z</time></trkpt><trkpt lat="38.453170" lon="-6.975890"><ele>334.2</ele><time>2008-11-25T10:52:09Z</time></trkpt><trkpt lat="38.453350" lon="-6.975260"><ele>337.6</ele><time>2008-11-25T10:52:10Z</time></trkpt><trkpt lat="38.453480" lon="-6.975060"><ele>338.5</ele><time>2008-11-25T10:52:11Z</time></trkpt><trkpt lat="38.453500" lon="-6.975090"><ele>338.5</ele><time>2008-11-25T10:52:12Z</time></trkpt><trkpt lat="38.453490" lon="-6.975060"><ele>339.0</ele><time>2008-11-25T10:52:13Z</time></trkpt><trkpt lat="38.453680" lon="-6.974810"><ele>337.1</ele><time>2008-11-25T10:52:14Z</time></trkpt><trkpt lat="38.453860" lon="-6.974670"><ele>336.1</ele><time>2008-11-25T10:52:15Z</time></trkpt><trkpt lat="38.454150" lon="-6.974310"><ele>333.7</ele><time>2008-11-25T10:52:16Z</time></trkpt><trkpt lat="38.454710" lon="-6.973770"><ele>333.2</ele><time>2008-11-25T10:52:17Z</time></trkpt><trkpt lat="38.454730" lon="-6.973710"><ele>333.2</ele><time>2008-11-25T10:52:18Z</time></trkpt><trkpt lat="38.455460" lon="-6.972850"><ele>327.0</ele><time>2008-11-25T10:52:19Z</time></trkpt><trkpt lat="38.456910" lon="-6.971360"><ele>327.9</ele><time>2008-11-25T10:52:20Z</time></trkpt><trkpt lat="38.457170" lon="-6.971300"><ele>326.5</ele><time>2008-11-25T10:52:21Z</time></trkpt><trkpt lat="38.457420" lon="-6.971320"><ele>328.4</ele><time>2008-11-25T10:52:22Z</time></trkpt><trkpt lat="38.457920" lon="-6.971250"><ele>329.9</ele><time>2008-11-25T10:52:23Z</time></trkpt><trkpt lat="38.458170" lon="-6.971160"><ele>331.3</ele><time>2008-11-25T10:52:24Z</time></trkpt><trkpt lat="38.458900" lon="-6.970730"><ele>332.8</ele><time>2008-11-25T10:52:25Z</time></trkpt><trkpt lat="38.459510" lon="-6.970280"><ele>333.7</ele><time>2008-11-25T10:52:26Z</time></trkpt><trkpt lat="38.459680" lon="-6.970020"><ele>333.2</ele><time>2008-11-25T10:52:27Z</time></trkpt><trkpt lat="38.459710" lon="-6.969900"><ele>332.8</ele><time>2008-11-25T10:52:28Z</time></trkpt><trkpt lat="38.459810" lon="-6.969690"><ele>328.9</ele><time>2008-11-25T10:52:29Z</time></trkpt><trkpt lat="38.459850" lon="-6.969480"><ele>326.5</ele><time>2008-11-25T10:52:30Z</time></trkpt><trkpt lat="38.460000" lon="-6.969220"><ele>322.7</ele><time>2008-11-25T10:52:31Z</time></trkpt><trkpt lat="38.460130" lon="-6.969080"><ele>321.7</ele><time>2008-11-25T10:52:32Z</time></trkpt><trkpt lat="38.460200" lon="-6.968920"><ele>318.8</ele><time>2008-11-25T10:52:33Z</time></trkpt><trkpt lat="38.460340" lon="-6.968980"><ele>317.4</ele><time>2008-11-25T10:52:34Z</time></trkpt><trkpt lat="38.460550" lon="-6.969150"><ele>318.3</ele><time>2008-11-25T10:52:35Z</time></trkpt><trkpt lat="38.460640" lon="-6.969290"><ele>317.8</ele><time>2008-11-25T10:52:36Z</time></trkpt><trkpt lat="38.460770" lon="-6.969360"><ele>316.9</ele><time>2008-11-25T10:52:37Z</time></trkpt><trkpt lat="38.461030" lon="-6.969250"><ele>312.6</ele><time>2008-11-25T10:52:38Z</time></trkpt><trkpt lat="38.461410" lon="-6.969240"><ele>309.2</ele><time>2008-11-25T10:52:39Z</time></trkpt><trkpt lat="38.461640" lon="-6.969330"><ele>307.3</ele><time>2008-11-25T10:52:40Z</time></trkpt><trkpt lat="38.460150" lon="-6.969100"><ele>322.2</ele><time>2008-11-25T10:52:41Z</time></trkpt><trkpt lat="38.460270" lon="-6.969100"><ele>319.3</ele><time>2008-11-25T10:52:42Z</time></trkpt><trkpt lat="38.460220" lon="-6.969380"><ele>320.3</ele><time>2008-11-25T10:52:43Z</time></trkpt><trkpt lat="38.460180" lon="-6.969510"><ele>320.3</ele><time>2008-11-25T10:52:44Z</time></trkpt><trkpt lat="38.460160" lon="-6.969710"><ele>324.1</ele><time>2008-11-25T10:52:45Z</time></trkpt><trkpt lat="38.460200" lon="-6.969880"><ele>324.6</ele><time>2008-11-25T10:52:46Z</time></trkpt><trkpt lat="38.460220" lon="-6.970240"><ele>326.5</ele><time>2008-11-25T10:52:47Z</time></trkpt><trkpt lat="38.460220" lon="-6.970400"><ele>326.0</ele><time>2008-11-25T10:52:48Z</time></trkpt><trkpt lat="38.460170" lon="-6.970620"><ele>327.5</ele><time>2008-11-25T10:52:49Z</time></trkpt><trkpt lat="38.460200" lon="-6.970590"><ele>326.5</ele><time>2008-11-25T10:52:50Z</time></trkpt><trkpt lat="38.460250" lon="-6.970760"><ele>323.6</ele><time>2008-11-25T10:52:51Z</time></trkpt><trkpt lat="38.460310" lon="-6.970900"><ele>322.7</ele><time>2008-11-25T10:52:52Z</time></trkpt><trkpt lat="38.460310" lon="-6.971230"><ele>322.2</ele><time>2008-11-25T10:52:53Z</time></trkpt><trkpt lat="38.460340" lon="-6.971340"><ele>321.2</ele><time>2008-11-25T10:52:54Z</time></trkpt><trkpt lat="38.460320" lon="-6.971380"><ele>321.2</ele><time>2008-11-25T10:52:55Z</time></trkpt><trkpt lat="38.460460" lon="-6.971450"><ele>317.8</ele><time>2008-11-25T10:52:56Z</time></trkpt><trkpt lat="38.460550" lon="-6.971600"><ele>310.7</ele><time>2008-11-25T10:52:57Z</time></trkpt><trkpt lat="38.460510" lon="-6.971770"><ele>309.7</ele><time>2008-11-25T10:52:58Z</time></trkpt><trkpt lat="38.460540" lon="-6.971910"><ele>308.7</ele><time>2008-11-25T10:52:59Z</time></trkpt><trkpt lat="38.460580" lon="-6.971950"><ele>308.7</ele><time>2008-11-25T10:53:00Z</time></trkpt><trkpt lat="38.460650" lon="-6.972140"><ele>307.8</ele><time>2008-11-25T10:53:01Z</time></trkpt><trkpt lat="38.460660" lon="-6.972210"><ele>309.2</ele><time>2008-11-25T10:53:02Z</time></trkpt><trkpt lat="38.460670" lon="-6.972200"><ele>309.7</ele><time>2008-11-25T10:53:03Z</time></trkpt><trkpt lat="38.460640" lon="-6.972340"><ele>310.2</ele><time>2008-11-25T10:53:04Z</time></trkpt><trkpt lat="38.460650" lon="-6.972530"><ele>307.3</ele><time>2008-11-25T10:53:05Z</time></trkpt><trkpt lat="38.460630" lon="-6.972570"><ele>308.7</ele><time>2008-11-25T10:53:06Z</time></trkpt><trkpt lat="38.460640" lon="-6.972550"><ele>307.8</ele><time>2008-11-25T10:53:07Z</time></trkpt><trkpt lat="38.460740" lon="-6.972490"><ele>304.4</ele><time>2008-11-25T10:53:08Z</time></trkpt><trkpt lat="38.460710" lon="-6.972610"><ele>304.4</ele><time>2008-11-25T10:53:09Z</time></trkpt><trkpt lat="38.460720" lon="-6.972740"><ele>302.9</ele><time>2008-11-25T10:53:10Z</time></trkpt><trkpt lat="38.460750" lon="-6.972780"><ele>303.4</ele><time>2008-11-25T10:53:11Z</time></trkpt><trkpt lat="38.460720" lon="-6.973270"><ele>302.5</ele><time>2008-11-25T10:53:12Z</time></trkpt><trkpt lat="38.460710" lon="-6.973260"><ele>303.9</ele><time>2008-11-25T10:53:13Z</time></trkpt><trkpt lat="38.460670" lon="-6.973300"><ele>304.9</ele><time>2008-11-25T10:53:14Z</time></trkpt><trkpt lat="38.460610" lon="-6.973720"><ele>304.9</ele><time>2008-11-25T10:53:15Z</time></trkpt><trkpt lat="38.460660" lon="-6.974000"><ele>304.9</ele><time>2008-11-25T10:53:16Z</time></trkpt><trkpt lat="38.460520" lon="-6.974440"><ele>305.8</ele><time>2008-11-25T10:53:17Z</time></trkpt><trkpt lat="38.460020" lon="-6.974590"><ele>306.8</ele><time>2008-11-25T10:53:18Z</time></trkpt><trkpt lat="38.460660" lon="-6.974170"><ele>306.8</ele><time>2008-11-25T10:53:19Z</time></trkpt><trkpt lat="38.460630" lon="-6.974190"><ele>306.3</ele><time>2008-11-25T10:53:20Z</time></trkpt><trkpt lat="38.460580" lon="-6.974370"><ele>308.2</ele><time>2008-11-25T10:53:21Z</time></trkpt><trkpt lat="38.460430" lon="-6.974650"><ele>310.2</ele><time>2008-11-25T10:53:22Z</time></trkpt><trkpt lat="38.460480" lon="-6.974680"><ele>311.6</ele><time>2008-11-25T10:53:23Z</time></trkpt><trkpt lat="38.460510" lon="-6.974660"><ele>312.6</ele><time>2008-11-25T10:53:24Z</time></trkpt><trkpt lat="38.460620" lon="-6.974850"><ele>312.6</ele><time>2008-11-25T10:53:25Z</time></trkpt><trkpt lat="38.460660" lon="-6.974990"><ele>310.2</ele><time>2008-11-25T10:53:26Z</time></trkpt><trkpt lat="38.460600" lon="-6.975060"><ele>309.7</ele><time>2008-11-25T10:53:27Z</time></trkpt><trkpt lat="38.460620" lon="-6.975140"><ele>308.7</ele><time>2008-11-25T10:53:28Z</time></trkpt><trkpt lat="38.460610" lon="-6.975310"><ele>306.8</ele><time>2008-11-25T10:53:29Z</time></trkpt><trkpt lat="38.460570" lon="-6.975340"><ele>306.3</ele><time>2008-11-25T10:53:30Z</time></trkpt><trkpt lat="38.460720" lon="-6.975500"><ele>310.2</ele><time>2008-11-25T10:53:31Z</time></trkpt><trkpt lat="38.460730" lon="-6.975420"><ele>309.7</ele><time>2008-11-25T10:53:32Z</time></trkpt><trkpt lat="38.461040" lon="-6.975470"><ele>310.7</ele><time>2008-11-25T10:53:33Z</time></trkpt><trkpt lat="38.461220" lon="-6.975410"><ele>312.1</ele><time>2008-11-25T10:53:34Z</time></trkpt><trkpt lat="38.461430" lon="-6.975660"><ele>313.1</ele><time>2008-11-25T10:53:35Z</time></trkpt><trkpt lat="38.461560" lon="-6.975750"><ele>313.1</ele><time>2008-11-25T10:53:36Z</time></trkpt><trkpt lat="38.461790" lon="-6.975820"><ele>314.0</ele><time>2008-11-25T10:53:37Z</time></trkpt><trkpt lat="38.462000" lon="-6.975790"><ele>314.5</ele><time>2008-11-25T10:53:38Z</time></trkpt><trkpt lat="38.462230" lon="-6.975690"><ele>316.4</ele><time>2008-11-25T10:53:39Z</time></trkpt><trkpt lat="38.462420" lon="-6.975430"><ele>309.7</ele><time>2008-11-25T10:53:40Z</time></trkpt><trkpt lat="38.462530" lon="-6.975110"><ele>310.2</ele><time>2008-11-25T10:53:41Z</time></trkpt><trkpt lat="38.462550" lon="-6.975120"><ele>308.7</ele><time>2008-11-25T10:53:42Z</time></trkpt><trkpt lat="38.462690" lon="-6.975000"><ele>309.2</ele><time>2008-11-25T10:53:43Z</time></trkpt><trkpt lat="38.462820" lon="-6.974960"><ele>308.7</ele><time>2008-11-25T10:53:44Z</time></trkpt><trkpt lat="38.463120" lon="-6.974730"><ele>306.8</ele><time>2008-11-25T10:53:45Z</time></trkpt><trkpt lat="38.463540" lon="-6.974700"><ele>303.9</ele><time>2008-11-25T10:53:46Z</time></trkpt><trkpt lat="38.463730" lon="-6.974780"><ele>303.9</ele><time>2008-11-25T10:53:47Z</time></trkpt><trkpt lat="38.463860" lon="-6.974920"><ele>303.4</ele><time>2008-11-25T10:53:48Z</time></trkpt><trkpt lat="38.463920" lon="-6.975050"><ele>301.5</ele><time>2008-11-25T10:53:49Z</time></trkpt><trkpt lat="38.463770" lon="-6.975140"><ele>302.9</ele><time>2008-11-25T10:53:50Z</time></trkpt><trkpt lat="38.463880" lon="-6.975100"><ele>302.5</ele><time>2008-11-25T10:53:51Z</time></trkpt><trkpt lat="38.464000" lon="-6.975320"><ele>302.0</ele><time>2008-11-25T10:53:52Z</time></trkpt><trkpt lat="38.464110" lon="-6.975680"><ele>302.9</ele><time>2008-11-25T10:53:53Z</time></trkpt><trkpt lat="38.464130" lon="-6.976310"><ele>304.9</ele><time>2008-11-25T10:53:54Z</time></trkpt><trkpt lat="38.464110" lon="-6.976610"><ele>305.3</ele><time>2008-11-25T10:53:55Z</time></trkpt><trkpt lat="38.464200" lon="-6.976830"><ele>304.4</ele><time>2008-11-25T10:53:56Z</time></trkpt><trkpt lat="38.464200" lon="-6.977830"><ele>300.1</ele><time>2008-11-25T10:53:57Z</time></trkpt><trkpt lat="38.463790" lon="-6.978620"><ele>301.0</ele><time>2008-11-25T10:53:58Z</time></trkpt><trkpt lat="38.463660" lon="-6.979020"><ele>299.6</ele><time>2008-11-25T10:53:59Z</time></trkpt><trkpt lat="38.463490" lon="-6.979770"><ele>298.6</ele><time>2008-11-25T10:54:00Z</time></trkpt><trkpt lat="38.463430" lon="-6.979950"><ele>298.2</ele><time>2008-11-25T10:54:01Z</time></trkpt><trkpt lat="38.463410" lon="-6.980800"><ele>297.7</ele><time>2008-11-25T10:54:02Z</time></trkpt><trkpt lat="38.463350" lon="-6.981060"><ele>297.2</ele><time>2008-11-25T10:54:03Z</time></trkpt><trkpt lat="38.463180" lon="-6.981460"><ele>298.2</ele><time>2008-11-25T10:54:04Z</time></trkpt><trkpt lat="38.462840" lon="-6.982200"><ele>299.6</ele><time>2008-11-25T10:54:05Z</time></trkpt><trkpt lat="38.462680" lon="-6.982320"><ele>299.1</ele><time>2008-11-25T10:54:06Z</time></trkpt><trkpt lat="38.462420" lon="-6.982440"><ele>299.1</ele><time>2008-11-25T10:54:07Z</time></trkpt><trkpt lat="38.462150" lon="-6.982530"><ele>298.2</ele><time>2008-11-25T10:54:08Z</time></trkpt><trkpt lat="38.461760" lon="-6.982610"><ele>297.7</ele><time>2008-11-25T10:54:09Z</time></trkpt><trkpt lat="38.461560" lon="-6.982700"><ele>295.7</ele><time>2008-11-25T10:54:10Z</time></trkpt><trkpt lat="38.461440" lon="-6.982660"><ele>294.3</ele><time>2008-11-25T10:54:11Z</time></trkpt><trkpt lat="38.461750" lon="-6.983900"><ele>296.2</ele><time>2008-11-25T10:54:12Z</time></trkpt><trkpt lat="38.461430" lon="-6.982730"><ele>296.2</ele><time>2008-11-25T10:54:13Z</time></trkpt><trkpt lat="38.461530" lon="-6.982630"><ele>295.7</ele><time>2008-11-25T10:54:14Z</time></trkpt><trkpt lat="38.461140" lon="-6.982650"><ele>296.2</ele><time>2008-11-25T10:54:15Z</time></trkpt><trkpt lat="38.460520" lon="-6.982330"><ele>295.7</ele><time>2008-11-25T10:54:16Z</time></trkpt><trkpt lat="38.459870" lon="-6.982040"><ele>295.3</ele><time>2008-11-25T10:54:17Z</time></trkpt><trkpt lat="38.460020" lon="-6.982010"><ele>295.3</ele><time>2008-11-25T10:54:18Z</time></trkpt><trkpt lat="38.459860" lon="-6.981840"><ele>291.9</ele><time>2008-11-25T10:54:19Z</time></trkpt><trkpt lat="38.459850" lon="-6.981850"><ele>294.8</ele><time>2008-11-25T10:54:20Z</time></trkpt><trkpt lat="38.459850" lon="-6.981790"><ele>297.7</ele><time>2008-11-25T10:54:21Z</time></trkpt><trkpt lat="38.459750" lon="-6.981630"><ele>296.2</ele><time>2008-11-25T10:54:22Z</time></trkpt><trkpt lat="38.458160" lon="-6.981490"><ele>293.3</ele><time>2008-11-25T10:54:23Z</time></trkpt><trkpt lat="38.458100" lon="-6.981400"><ele>293.3</ele><time>2008-11-25T10:54:24Z</time></trkpt><trkpt lat="38.457950" lon="-6.981510"><ele>291.9</ele><time>2008-11-25T10:54:25Z</time></trkpt><trkpt lat="38.457900" lon="-6.981640"><ele>291.9</ele><time>2008-11-25T10:54:26Z</time></trkpt><trkpt lat="38.457930" lon="-6.981600"><ele>292.9</ele><time>2008-11-25T10:54:27Z</time></trkpt><trkpt lat="38.457890" lon="-6.981590"><ele>291.9</ele><time>2008-11-25T10:54:28Z</time></trkpt><trkpt lat="38.457690" lon="-6.981680"><ele>290.4</ele><time>2008-11-25T10:54:29Z</time></trkpt><trkpt lat="38.457430" lon="-6.981710"><ele>290.4</ele><time>2008-11-25T10:54:30Z</time></trkpt><trkpt lat="38.457060" lon="-6.981910"><ele>289.0</ele><time>2008-11-25T10:54:31Z</time></trkpt><trkpt lat="38.456710" lon="-6.982000"><ele>289.5</ele><time>2008-11-25T10:54:32Z</time></trkpt><trkpt lat="38.456730" lon="-6.981930"><ele>289.5</ele><time>2008-11-25T10:54:33Z</time></trkpt><trkpt lat="38.456740" lon="-6.981960"><ele>289.5</ele><time>2008-11-25T10:54:34Z</time></trkpt><trkpt lat="38.456550" lon="-6.981980"><ele>286.6</ele><time>2008-11-25T10:54:35Z</time></trkpt><trkpt lat="38.456450" lon="-6.982070"><ele>289.5</ele><time>2008-11-25T10:54:36Z</time></trkpt><trkpt lat="38.456210" lon="-6.982140"><ele>290.9</ele><time>2008-11-25T10:54:37Z</time></trkpt><trkpt lat="38.456070" lon="-6.982230"><ele>290.0</ele><time>2008-11-25T10:54:38Z</time></trkpt><trkpt lat="38.456030" lon="-6.982210"><ele>290.0</ele><time>2008-11-25T10:54:39Z</time></trkpt><trkpt lat="38.455750" lon="-6.982520"><ele>290.4</ele><time>2008-11-25T10:54:40Z</time></trkpt><trkpt lat="38.454420" lon="-6.983280"><ele>290.0</ele><time>2008-11-25T10:54:41Z</time></trkpt><trkpt lat="38.453820" lon="-6.983980"><ele>291.9</ele><time>2008-11-25T10:54:42Z</time></trkpt><trkpt lat="38.453840" lon="-6.983970"><ele>293.3</ele><time>2008-11-25T10:54:43Z</time></trkpt><trkpt lat="38.453830" lon="-6.984380"><ele>292.4</ele><time>2008-11-25T10:54:44Z</time></trkpt><trkpt lat="38.454010" lon="-6.984500"><ele>292.9</ele><time>2008-11-25T10:54:45Z</time></trkpt><trkpt lat="38.454320" lon="-6.984590"><ele>292.9</ele><time>2008-11-25T10:54:46Z</time></trkpt><trkpt lat="38.454300" lon="-6.984600"><ele>291.9</ele><time>2008-11-25T10:54:47Z</time></trkpt><trkpt lat="38.454620" lon="-6.984800"><ele>295.3</ele><time>2008-11-25T10:54:48Z</time></trkpt><trkpt lat="38.454890" lon="-6.985380"><ele>294.3</ele><time>2008-11-25T10:54:49Z</time></trkpt><trkpt lat="38.455070" lon="-6.985680"><ele>294.3</ele><time>2008-11-25T10:54:50Z</time></trkpt><trkpt lat="38.455540" lon="-6.986020"><ele>295.3</ele><time>2008-11-25T10:54:51Z</time></trkpt><trkpt lat="38.456310" lon="-6.986670"><ele>293.8</ele><time>2008-11-25T10:54:52Z</time></trkpt><trkpt lat="38.456740" lon="-6.986900"><ele>295.3</ele><time>2008-11-25T10:54:53Z</time></trkpt><trkpt lat="38.457880" lon="-6.987600"><ele>292.4</ele><time>2008-11-25T10:54:54Z</time></trkpt><trkpt lat="38.458510" lon="-6.988370"><ele>291.9</ele><time>2008-11-25T10:54:55Z</time></trkpt><trkpt lat="38.458560" lon="-6.988350"><ele>293.8</ele><time>2008-11-25T10:54:56Z</time></trkpt><trkpt lat="38.458430" lon="-6.989090"><ele>291.4</ele><time>2008-11-25T10:54:57Z</time></trkpt><trkpt lat="38.458260" lon="-6.989350"><ele>292.9</ele><time>2008-11-25T10:54:58Z</time></trkpt><trkpt lat="38.458160" lon="-6.989770"><ele>293.3</ele><time>2008-11-25T10:54:59Z</time></trkpt><trkpt lat="38.458040" lon="-6.990100"><ele>293.3</ele><time>2008-11-25T10:55:00Z</time></trkpt><trkpt lat="38.457900" lon="-6.990450"><ele>294.8</ele><time>2008-11-25T10:55:01Z</time></trkpt><trkpt lat="38.457660" lon="-6.990720"><ele>293.8</ele><time>2008-11-25T10:55:02Z</time></trkpt><trkpt lat="38.457390" lon="-6.990900"><ele>293.3</ele><time>2008-11-25T10:55:03Z</time></trkpt><trkpt lat="38.457020" lon="-6.991290"><ele>292.9</ele><time>2008-11-25T10:55:04Z</time></trkpt><trkpt lat="38.456540" lon="-6.991490"><ele>293.8</ele><time>2008-11-25T10:55:05Z</time></trkpt><trkpt lat="38.456140" lon="-6.991630"><ele>294.3</ele><time>2008-11-25T10:55:06Z</time></trkpt><trkpt lat="38.455860" lon="-6.991830"><ele>293.8</ele><time>2008-11-25T10:55:07Z</time></trkpt><trkpt lat="38.455500" lon="-6.992170"><ele>291.4</ele><time>2008-11-25T10:55:08Z</time></trkpt><trkpt lat="38.454990" lon="-6.992440"><ele>293.8</ele><time>2008-11-25T10:55:09Z</time></trkpt><trkpt lat="38.454670" lon="-6.992560"><ele>292.9</ele><time>2008-11-25T10:55:10Z</time></trkpt><trkpt lat="38.454700" lon="-6.992570"><ele>292.9</ele><time>2008-11-25T10:55:11Z</time></trkpt><trkpt lat="38.454630" lon="-6.992630"><ele>292.9</ele><time>2008-11-25T10:55:12Z</time></trkpt><trkpt lat="38.454560" lon="-6.992660"><ele>292.4</ele><time>2008-11-25T10:55:13Z</time></trkpt><trkpt lat="38.454170" lon="-6.993140"><ele>292.4</ele><time>2008-11-25T10:55:14Z</time></trkpt><trkpt lat="38.453950" lon="-6.993510"><ele>292.4</ele><time>2008-11-25T10:55:15Z</time></trkpt><trkpt lat="38.453610" lon="-6.993740"><ele>291.4</ele><time>2008-11-25T10:55:16Z</time></trkpt><trkpt lat="38.453180" lon="-6.994240"><ele>293.8</ele><time>2008-11-25T10:55:17Z</time></trkpt><trkpt lat="38.452330" lon="-6.994870"><ele>293.3</ele><time>2008-11-25T10:55:18Z</time></trkpt><trkpt lat="38.452350" lon="-6.994860"><ele>292.4</ele><time>2008-11-25T10:55:19Z</time></trkpt><trkpt lat="38.452190" lon="-6.994930"><ele>294.8</ele><time>2008-11-25T10:55:20Z</time></trkpt><trkpt lat="38.451870" lon="-6.995670"><ele>290.0</ele><time>2008-11-25T10:55:21Z</time></trkpt><trkpt lat="38.451640" lon="-6.995910"><ele>289.0</ele><time>2008-11-25T10:55:22Z</time></trkpt><trkpt lat="38.451090" lon="-6.995870"><ele>290.4</ele><time>2008-11-25T10:55:23Z</time></trkpt><trkpt lat="38.450450" lon="-6.995950"><ele>289.0</ele><time>2008-11-25T10:55:24Z</time></trkpt><trkpt lat="38.449510" lon="-6.995920"><ele>290.4</ele><time>2008-11-25T10:55:25Z</time></trkpt><trkpt lat="38.448990" lon="-6.995990"><ele>290.4</ele><time>2008-11-25T10:55:26Z</time></trkpt><trkpt lat="38.448790" lon="-6.996070"><ele>290.4</ele><time>2008-11-25T10:55:27Z</time></trkpt><trkpt lat="38.448280" lon="-6.996340"><ele>291.9</ele><time>2008-11-25T10:55:28Z</time></trkpt><trkpt lat="38.447810" lon="-6.996700"><ele>290.9</ele><time>2008-11-25T10:55:29Z</time></trkpt><trkpt lat="38.447690" lon="-6.996750"><ele>291.9</ele><time>2008-11-25T10:55:30Z</time></trkpt><trkpt lat="38.447410" lon="-6.996910"><ele>290.4</ele><time>2008-11-25T10:55:31Z</time></trkpt><trkpt lat="38.447170" lon="-6.997080"><ele>291.4</ele><time>2008-11-25T10:55:32Z</time></trkpt><trkpt lat="38.447010" lon="-6.997410"><ele>289.0</ele><time>2008-11-25T10:55:33Z</time></trkpt><trkpt lat="38.447020" lon="-6.997400"><ele>289.5</ele><time>2008-11-25T10:55:34Z</time></trkpt><trkpt lat="38.446780" lon="-6.997990"><ele>290.0</ele><time>2008-11-25T10:55:35Z</time></trkpt><trkpt lat="38.446880" lon="-6.998990"><ele>290.0</ele><time>2008-11-25T10:55:36Z</time></trkpt><trkpt lat="38.447150" lon="-7.000050"><ele>289.5</ele><time>2008-11-25T10:55:37Z</time></trkpt><trkpt lat="38.447570" lon="-7.000960"><ele>288.5</ele><time>2008-11-25T10:55:38Z</time></trkpt><trkpt lat="38.447700" lon="-7.001510"><ele>287.6</ele><time>2008-11-25T10:55:39Z</time></trkpt><trkpt lat="38.447700" lon="-7.001850"><ele>289.0</ele><time>2008-11-25T10:55:40Z</time></trkpt><trkpt lat="38.447350" lon="-7.002520"><ele>287.6</ele><time>2008-11-25T10:55:41Z</time></trkpt><trkpt lat="38.446910" lon="-7.003050"><ele>287.1</ele><time>2008-11-25T10:55:42Z</time></trkpt><trkpt lat="38.446670" lon="-7.004330"><ele>288.5</ele><time>2008-11-25T10:55:43Z</time></trkpt><trkpt lat="38.446630" lon="-7.004750"><ele>289.5</ele><time>2008-11-25T10:55:44Z</time></trkpt><trkpt lat="38.446810" lon="-7.005820"><ele>287.1</ele><time>2008-11-25T10:55:45Z</time></trkpt><trkpt lat="38.446740" lon="-7.008170"><ele>286.6</ele><time>2008-11-25T10:55:46Z</time></trkpt><trkpt lat="38.446700" lon="-7.008500"><ele>286.1</ele><time>2008-11-25T10:55:47Z</time></trkpt><trkpt lat="38.446530" lon="-7.009180"><ele>284.2</ele><time>2008-11-25T10:55:48Z</time></trkpt><trkpt lat="38.446370" lon="-7.009620"><ele>285.2</ele><time>2008-11-25T10:55:49Z</time></trkpt><trkpt lat="38.445720" lon="-7.010480"><ele>285.2</ele><time>2008-11-25T10:55:50Z</time></trkpt><trkpt lat="38.445180" lon="-7.010810"><ele>284.7</ele><time>2008-11-25T10:55:51Z</time></trkpt><trkpt lat="38.444960" lon="-7.011120"><ele>284.2</ele><time>2008-11-25T10:55:52Z</time></trkpt><trkpt lat="38.444440" lon="-7.011630"><ele>283.3</ele><time>2008-11-25T10:55:53Z</time></trkpt><trkpt lat="38.444000" lon="-7.012200"><ele>284.2</ele><time>2008-11-25T10:55:54Z</time></trkpt><trkpt lat="38.443680" lon="-7.012700"><ele>283.3</ele><time>2008-11-25T10:55:55Z</time></trkpt><trkpt lat="38.443150" lon="-7.013660"><ele>284.2</ele><time>2008-11-25T10:55:56Z</time></trkpt><trkpt lat="38.442980" lon="-7.014030"><ele>284.2</ele><time>2008-11-25T10:55:57Z</time></trkpt><trkpt lat="38.442800" lon="-7.014370"><ele>287.1</ele><time>2008-11-25T10:55:58Z</time></trkpt><trkpt lat="38.442730" lon="-7.014440"><ele>287.1</ele><time>2008-11-25T10:55:59Z</time></trkpt><trkpt lat="38.442730" lon="-7.014460"><ele>287.1</ele><time>2008-11-25T10:56:00Z</time></trkpt><trkpt lat="38.442760" lon="-7.014460"><ele>286.1</ele><time>2008-11-25T10:56:01Z</time></trkpt><trkpt lat="38.442690" lon="-7.014600"><ele>286.1</ele><time>2008-11-25T10:56:02Z</time></trkpt><trkpt lat="38.442710" lon="-7.014880"><ele>289.0</ele><time>2008-11-25T10:56:03Z</time></trkpt><trkpt lat="38.442830" lon="-7.015150"><ele>292.9</ele><time>2008-11-25T10:56:04Z</time></trkpt><trkpt lat="38.442950" lon="-7.015350"><ele>293.3</ele><time>2008-11-25T10:56:05Z</time></trkpt><trkpt lat="38.443570" lon="-7.015910"><ele>298.6</ele><time>2008-11-25T10:56:06Z</time></trkpt><trkpt lat="38.442660" lon="-7.014520"><ele>287.1</ele><time>2008-11-25T10:56:07Z</time></trkpt><trkpt lat="38.442680" lon="-7.014570"><ele>287.1</ele><time>2008-11-25T10:56:08Z</time></trkpt><trkpt lat="38.442670" lon="-7.014510"><ele>287.1</ele><time>2008-11-25T10:56:09Z</time></trkpt><trkpt lat="38.442090" lon="-7.014980"><ele>290.4</ele><time>2008-11-25T10:56:10Z</time></trkpt><trkpt lat="38.441630" lon="-7.015070"><ele>292.4</ele><time>2008-11-25T10:56:11Z</time></trkpt><trkpt lat="38.441410" lon="-7.015080"><ele>289.5</ele><time>2008-11-25T10:56:12Z</time></trkpt><trkpt lat="38.441220" lon="-7.015150"><ele>286.6</ele><time>2008-11-25T10:56:13Z</time></trkpt><trkpt lat="38.441010" lon="-7.015460"><ele>283.3</ele><time>2008-11-25T10:56:14Z</time></trkpt><trkpt lat="38.440960" lon="-7.015660"><ele>283.7</ele><time>2008-11-25T10:56:15Z</time></trkpt><trkpt lat="38.441000" lon="-7.015660"><ele>281.8</ele><time>2008-11-25T10:56:16Z</time></trkpt><trkpt lat="38.440980" lon="-7.015670"><ele>281.8</ele><time>2008-11-25T10:56:17Z</time></trkpt><trkpt lat="38.440960" lon="-7.015880"><ele>283.3</ele><time>2008-11-25T10:56:18Z</time></trkpt><trkpt lat="38.440880" lon="-7.016230"><ele>284.7</ele><time>2008-11-25T10:56:19Z</time></trkpt><trkpt lat="38.440720" lon="-7.016640"><ele>288.5</ele><time>2008-11-25T10:56:20Z</time></trkpt><trkpt lat="38.440730" lon="-7.017380"><ele>290.0</ele><time>2008-11-25T10:56:21Z</time></trkpt><trkpt lat="38.440780" lon="-7.017740"><ele>290.4</ele><time>2008-11-25T10:56:22Z</time></trkpt><trkpt lat="38.440590" lon="-7.018910"><ele>289.0</ele><time>2008-11-25T10:56:23Z</time></trkpt><trkpt lat="38.440650" lon="-7.019230"><ele>288.1</ele><time>2008-11-25T10:56:24Z</time></trkpt><trkpt lat="38.440540" lon="-7.019910"><ele>288.1</ele><time>2008-11-25T10:56:25Z</time></trkpt><trkpt lat="38.440170" lon="-7.020210"><ele>284.7</ele><time>2008-11-25T10:56:26Z</time></trkpt><trkpt lat="38.439940" lon="-7.020440"><ele>280.8</ele><time>2008-11-25T10:56:27Z</time></trkpt><trkpt lat="38.439590" lon="-7.021250"><ele>277.0</ele><time>2008-11-25T10:56:28Z</time></trkpt><trkpt lat="38.439310" lon="-7.021570"><ele>274.6</ele><time>2008-11-25T10:56:29Z</time></trkpt><trkpt lat="38.438280" lon="-7.022260"><ele>274.6</ele><time>2008-11-25T10:56:30Z</time></trkpt><trkpt lat="38.438120" lon="-7.022550"><ele>270.8</ele><time>2008-11-25T10:56:31Z</time></trkpt><trkpt lat="38.438100" lon="-7.022930"><ele>270.3</ele><time>2008-11-25T10:56:32Z</time></trkpt><trkpt lat="38.438130" lon="-7.022960"><ele>269.8</ele><time>2008-11-25T10:56:33Z</time></trkpt><trkpt lat="38.437990" lon="-7.023380"><ele>270.8</ele><time>2008-11-25T10:56:34Z</time></trkpt><trkpt lat="38.437970" lon="-7.023950"><ele>270.3</ele><time>2008-11-25T10:56:35Z</time></trkpt><trkpt lat="38.438030" lon="-7.025330"><ele>268.3</ele><time>2008-11-25T10:56:36Z</time></trkpt><trkpt lat="38.438000" lon="-7.025930"><ele>269.3</ele><time>2008-11-25T10:56:37Z</time></trkpt><trkpt lat="38.437770" lon="-7.026700"><ele>269.8</ele><time>2008-11-25T10:56:38Z</time></trkpt><trkpt lat="38.437450" lon="-7.026950"><ele>268.8</ele><time>2008-11-25T10:56:39Z</time></trkpt><trkpt lat="38.437500" lon="-7.026970"><ele>268.3</ele><time>2008-11-25T10:56:40Z</time></trkpt><trkpt lat="38.437590" lon="-7.026910"><ele>269.3</ele><time>2008-11-25T10:56:41Z</time></trkpt><trkpt lat="38.437380" lon="-7.026970"><ele>269.8</ele><time>2008-11-25T10:56:42Z</time></trkpt><trkpt lat="38.437090" lon="-7.027150"><ele>272.7</ele><time>2008-11-25T10:56:43Z</time></trkpt><trkpt lat="38.437050" lon="-7.027340"><ele>276.0</ele><time>2008-11-25T10:56:44Z</time></trkpt><trkpt lat="38.436820" lon="-7.028160"><ele>280.8</ele><time>2008-11-25T10:56:45Z</time></trkpt><trkpt lat="38.436770" lon="-7.028810"><ele>287.1</ele><time>2008-11-25T10:56:46Z</time></trkpt><trkpt lat="38.436960" lon="-7.029230"><ele>291.4</ele><time>2008-11-25T10:56:47Z</time></trkpt><trkpt lat="38.437030" lon="-7.029480"><ele>291.9</ele><time>2008-11-25T10:56:48Z</time></trkpt><trkpt lat="38.437020" lon="-7.029700"><ele>296.2</ele><time>2008-11-25T10:56:49Z</time></trkpt><trkpt lat="38.437060" lon="-7.030020"><ele>296.7</ele><time>2008-11-25T10:56:50Z</time></trkpt><trkpt lat="38.436960" lon="-7.030490"><ele>295.7</ele><time>2008-11-25T10:56:51Z</time></trkpt><trkpt lat="38.436550" lon="-7.031010"><ele>289.5</ele><time>2008-11-25T10:56:52Z</time></trkpt><trkpt lat="38.436050" lon="-7.032050"><ele>289.0</ele><time>2008-11-25T10:56:53Z</time></trkpt><trkpt lat="38.435880" lon="-7.032450"><ele>290.0</ele><time>2008-11-25T10:56:54Z</time></trkpt><trkpt lat="38.435490" lon="-7.032950"><ele>294.3</ele><time>2008-11-25T10:56:55Z</time></trkpt><trkpt lat="38.435170" lon="-7.033180"><ele>296.2</ele><time>2008-11-25T10:56:56Z</time></trkpt><trkpt lat="38.435150" lon="-7.033150"><ele>296.7</ele><time>2008-11-25T10:56:57Z</time></trkpt><trkpt lat="38.434920" lon="-7.033420"><ele>296.2</ele><time>2008-11-25T10:56:58Z</time></trkpt><trkpt lat="38.434720" lon="-7.033340"><ele>295.7</ele><time>2008-11-25T10:56:59Z</time></trkpt><trkpt lat="38.434720" lon="-7.033320"><ele>295.3</ele><time>2008-11-25T10:57:00Z</time></trkpt><trkpt lat="38.434490" lon="-7.033510"><ele>292.4</ele><time>2008-11-25T10:57:01Z</time></trkpt><trkpt lat="38.434310" lon="-7.033730"><ele>290.9</ele><time>2008-11-25T10:57:02Z</time></trkpt><trkpt lat="38.433810" lon="-7.034080"><ele>294.3</ele><time>2008-11-25T10:57:03Z</time></trkpt><trkpt lat="38.433700" lon="-7.034190"><ele>294.3</ele><time>2008-11-25T10:57:04Z</time></trkpt><trkpt lat="38.433190" lon="-7.034410"><ele>290.9</ele><time>2008-11-25T10:57:05Z</time></trkpt><trkpt lat="38.432710" lon="-7.034450"><ele>287.6</ele><time>2008-11-25T10:57:06Z</time></trkpt><trkpt lat="38.432530" lon="-7.034820"><ele>285.7</ele><time>2008-11-25T10:57:07Z</time></trkpt><trkpt lat="38.432020" lon="-7.035460"><ele>284.7</ele><time>2008-11-25T10:57:08Z</time></trkpt><trkpt lat="38.431710" lon="-7.036040"><ele>285.2</ele><time>2008-11-25T10:57:09Z</time></trkpt><trkpt lat="38.431420" lon="-7.036260"><ele>281.8</ele><time>2008-11-25T10:57:10Z</time></trkpt><trkpt lat="38.431280" lon="-7.036320"><ele>283.3</ele><time>2008-11-25T10:57:11Z</time></trkpt><trkpt lat="38.431240" lon="-7.036460"><ele>284.2</ele><time>2008-11-25T10:57:12Z</time></trkpt><trkpt lat="38.431110" lon="-7.036730"><ele>285.7</ele><time>2008-11-25T10:57:13Z</time></trkpt><trkpt lat="38.430980" lon="-7.036910"><ele>287.1</ele><time>2008-11-25T10:57:14Z</time></trkpt><trkpt lat="38.430550" lon="-7.037410"><ele>288.1</ele><time>2008-11-25T10:57:15Z</time></trkpt><trkpt lat="38.430280" lon="-7.037490"><ele>291.4</ele><time>2008-11-25T10:57:16Z</time></trkpt><trkpt lat="38.430030" lon="-7.037720"><ele>291.9</ele><time>2008-11-25T10:57:17Z</time></trkpt><trkpt lat="38.430060" lon="-7.037820"><ele>290.9</ele><time>2008-11-25T10:57:18Z</time></trkpt><trkpt lat="38.430230" lon="-7.038010"><ele>293.8</ele><time>2008-11-25T10:57:19Z</time></trkpt><trkpt lat="38.430320" lon="-7.038250"><ele>292.9</ele><time>2008-11-25T10:57:20Z</time></trkpt><trkpt lat="38.430580" lon="-7.038570"><ele>290.0</ele><time>2008-11-25T10:57:21Z</time></trkpt><trkpt lat="38.430680" lon="-7.038620"><ele>290.0</ele><time>2008-11-25T10:57:22Z</time></trkpt><trkpt lat="38.430680" lon="-7.038600"><ele>290.0</ele><time>2008-11-25T10:57:23Z</time></trkpt><trkpt lat="38.430770" lon="-7.038620"><ele>292.4</ele><time>2008-11-25T10:57:24Z</time></trkpt><trkpt lat="38.431130" lon="-7.038370"><ele>290.9</ele><time>2008-11-25T10:57:25Z</time></trkpt><trkpt lat="38.431490" lon="-7.038360"><ele>287.1</ele><time>2008-11-25T10:57:26Z</time></trkpt><trkpt lat="38.432460" lon="-7.038520"><ele>274.1</ele><time>2008-11-25T10:57:27Z</time></trkpt><trkpt lat="38.432600" lon="-7.038600"><ele>274.1</ele><time>2008-11-25T10:57:28Z</time></trkpt><trkpt lat="38.432590" lon="-7.038540"><ele>269.3</ele><time>2008-11-25T10:57:29Z</time></trkpt><trkpt lat="38.432610" lon="-7.038530"><ele>270.3</ele><time>2008-11-25T10:57:30Z</time></trkpt><trkpt lat="38.432590" lon="-7.038570"><ele>269.3</ele><time>2008-11-25T10:57:31Z</time></trkpt><trkpt lat="38.432600" lon="-7.038540"><ele>269.3</ele><time>2008-11-25T10:57:32Z</time></trkpt><trkpt lat="38.432670" lon="-7.038640"><ele>268.3</ele><time>2008-11-25T10:57:33Z</time></trkpt><trkpt lat="38.432710" lon="-7.038630"><ele>268.3</ele><time>2008-11-25T10:57:34Z</time></trkpt><trkpt lat="38.432820" lon="-7.038710"><ele>266.9</ele><time>2008-11-25T10:57:35Z</time></trkpt><trkpt lat="38.433350" lon="-7.038810"><ele>265.0</ele><time>2008-11-25T10:57:36Z</time></trkpt><trkpt lat="38.433760" lon="-7.038810"><ele>265.0</ele><time>2008-11-25T10:57:37Z</time></trkpt><trkpt lat="38.433950" lon="-7.038720"><ele>263.5</ele><time>2008-11-25T10:57:38Z</time></trkpt><trkpt lat="38.433970" lon="-7.038690"><ele>262.6</ele><time>2008-11-25T10:57:39Z</time></trkpt><trkpt lat="38.434330" lon="-7.038480"><ele>261.6</ele><time>2008-11-25T10:57:40Z</time></trkpt><trkpt lat="38.434660" lon="-7.038490"><ele>261.1</ele><time>2008-11-25T10:57:41Z</time></trkpt><trkpt lat="38.434950" lon="-7.038820"><ele>261.1</ele><time>2008-11-25T10:57:42Z</time></trkpt><trkpt lat="38.435090" lon="-7.039040"><ele>259.7</ele><time>2008-11-25T10:57:43Z</time></trkpt><trkpt lat="38.435780" lon="-7.039200"><ele>263.5</ele><time>2008-11-25T10:57:44Z</time></trkpt><trkpt lat="38.436050" lon="-7.039180"><ele>263.5</ele><time>2008-11-25T10:57:45Z</time></trkpt><trkpt lat="38.436360" lon="-7.039030"><ele>264.0</ele><time>2008-11-25T10:57:46Z</time></trkpt><trkpt lat="38.437030" lon="-7.038800"><ele>264.0</ele><time>2008-11-25T10:57:47Z</time></trkpt><trkpt lat="38.437260" lon="-7.038820"><ele>259.2</ele><time>2008-11-25T10:57:48Z</time></trkpt><trkpt lat="38.437590" lon="-7.038780"><ele>258.7</ele><time>2008-11-25T10:57:49Z</time></trkpt><trkpt lat="38.437930" lon="-7.038780"><ele>258.3</ele><time>2008-11-25T10:57:50Z</time></trkpt><trkpt lat="38.438160" lon="-7.038650"><ele>258.3</ele><time>2008-11-25T10:57:51Z</time></trkpt><trkpt lat="38.438770" lon="-7.038450"><ele>256.3</ele><time>2008-11-25T10:57:52Z</time></trkpt><trkpt lat="38.439000" lon="-7.038130"><ele>254.9</ele><time>2008-11-25T10:57:53Z</time></trkpt><trkpt lat="38.439480" lon="-7.037960"><ele>254.9</ele><time>2008-11-25T10:57:54Z</time></trkpt><trkpt lat="38.439780" lon="-7.037790"><ele>253.4</ele><time>2008-11-25T10:57:55Z</time></trkpt><trkpt lat="38.439770" lon="-7.037770"><ele>254.4</ele><time>2008-11-25T10:57:56Z</time></trkpt><trkpt lat="38.439790" lon="-7.037740"><ele>252.5</ele><time>2008-11-25T10:57:57Z</time></trkpt><trkpt lat="38.439760" lon="-7.037730"><ele>253.0</ele><time>2008-11-25T10:57:58Z</time></trkpt><trkpt lat="38.439830" lon="-7.037730"><ele>253.0</ele><time>2008-11-25T10:57:59Z</time></trkpt><trkpt lat="38.439800" lon="-7.037140"><ele>252.0</ele><time>2008-11-25T10:58:00Z</time></trkpt><trkpt lat="38.439950" lon="-7.035270"><ele>252.5</ele><time>2008-11-25T10:58:01Z</time></trkpt><trkpt lat="38.440080" lon="-7.035060"><ele>254.4</ele><time>2008-11-25T10:58:02Z</time></trkpt><trkpt lat="38.440070" lon="-7.035080"><ele>254.9</ele><time>2008-11-25T10:58:03Z</time></trkpt><trkpt lat="38.440110" lon="-7.034920"><ele>255.4</ele><time>2008-11-25T10:58:04Z</time></trkpt><trkpt lat="38.440500" lon="-7.033910"><ele>255.8</ele><time>2008-11-25T10:58:05Z</time></trkpt><trkpt lat="38.440440" lon="-7.033720"><ele>256.8</ele><time>2008-11-25T10:58:06Z</time></trkpt><trkpt lat="38.440410" lon="-7.033420"><ele>259.2</ele><time>2008-11-25T10:58:07Z</time></trkpt><trkpt lat="38.440420" lon="-7.033360"><ele>260.2</ele><time>2008-11-25T10:58:08Z</time></trkpt><trkpt lat="38.440290" lon="-7.033080"><ele>261.6</ele><time>2008-11-25T10:58:09Z</time></trkpt><trkpt lat="38.440210" lon="-7.032830"><ele>260.7</ele><time>2008-11-25T10:58:10Z</time></trkpt><trkpt lat="38.440140" lon="-7.032820"><ele>262.6</ele><time>2008-11-25T10:58:11Z</time></trkpt><trkpt lat="38.440070" lon="-7.032640"><ele>263.1</ele><time>2008-11-25T10:58:12Z</time></trkpt><trkpt lat="38.440090" lon="-7.032620"><ele>262.6</ele><time>2008-11-25T10:58:13Z</time></trkpt><trkpt lat="38.440030" lon="-7.032000"><ele>260.2</ele><time>2008-11-25T10:58:14Z</time></trkpt><trkpt lat="38.440070" lon="-7.031370"><ele>260.2</ele><time>2008-11-25T10:58:15Z</time></trkpt><trkpt lat="38.440050" lon="-7.031150"><ele>262.6</ele><time>2008-11-25T10:58:16Z</time></trkpt><trkpt lat="38.440080" lon="-7.031150"><ele>262.6</ele><time>2008-11-25T10:58:17Z</time></trkpt><trkpt lat="38.440130" lon="-7.031060"><ele>260.7</ele><time>2008-11-25T10:58:18Z</time></trkpt><trkpt lat="38.440030" lon="-7.030740"><ele>261.1</ele><time>2008-11-25T10:58:19Z</time></trkpt><trkpt lat="38.439980" lon="-7.030710"><ele>261.6</ele><time>2008-11-25T10:58:20Z</time></trkpt><trkpt lat="38.439940" lon="-7.030580"><ele>261.6</ele><time>2008-11-25T10:58:21Z</time></trkpt><trkpt lat="38.439760" lon="-7.030230"><ele>262.1</ele><time>2008-11-25T10:58:22Z</time></trkpt><trkpt lat="38.439130" lon="-7.029620"><ele>262.1</ele><time>2008-11-25T10:58:23Z</time></trkpt><trkpt lat="38.438980" lon="-7.029500"><ele>262.1</ele><time>2008-11-25T10:58:24Z</time></trkpt><trkpt lat="38.438800" lon="-7.029510"><ele>264.5</ele><time>2008-11-25T10:58:25Z</time></trkpt><trkpt lat="38.438090" lon="-7.029430"><ele>271.2</ele><time>2008-11-25T10:58:26Z</time></trkpt><trkpt lat="38.438000" lon="-7.029390"><ele>270.8</ele><time>2008-11-25T10:58:27Z</time></trkpt><trkpt lat="38.437850" lon="-7.029270"><ele>269.3</ele><time>2008-11-25T10:58:28Z</time></trkpt><trkpt lat="38.437780" lon="-7.029240"><ele>269.8</ele><time>2008-11-25T10:58:29Z</time></trkpt><trkpt lat="38.437560" lon="-7.028980"><ele>266.4</ele><time>2008-11-25T10:58:30Z</time></trkpt><trkpt lat="38.437510" lon="-7.028710"><ele>264.0</ele><time>2008-11-25T10:58:31Z</time></trkpt><trkpt lat="38.437470" lon="-7.028040"><ele>262.6</ele><time>2008-11-25T10:58:32Z</time></trkpt><trkpt lat="38.437510" lon="-7.027530"><ele>263.1</ele><time>2008-11-25T10:58:33Z</time></trkpt><trkpt lat="38.437490" lon="-7.027220"><ele>263.5</ele><time>2008-11-25T10:58:34Z</time></trkpt><trkpt lat="38.437360" lon="-7.027050"><ele>264.5</ele><time>2008-11-25T10:58:35Z</time></trkpt><trkpt lat="38.437320" lon="-7.026960"><ele>265.0</ele><time>2008-11-25T10:58:36Z</time></trkpt><trkpt lat="38.437400" lon="-7.027010"><ele>262.6</ele><time>2008-11-25T10:58:37Z</time></trkpt><trkpt lat="38.437390" lon="-7.027020"><ele>262.6</ele><time>2008-11-25T10:58:38Z</time></trkpt></trkseg></trk></gpx>